sensor_id;sensor_type;location;lat;lon;timestamp;P1;durP1;ratioP1;P2;durP2;ratioP2
18732;SDS011;9495;51.210;2.934;2022-07-26T00:01:16;9.68;;;2.35;;
18732;SDS011;9495;51.210;2.934;2022-07-26T00:03:47;3.50;;;2.20;;
18732;SDS011;9495;51.210;2.934;2022-07-26T00:06:16;5.45;;;2.03;;
18732;SDS011;9495;51.210;2.934;2022-07-26T00:08:44;4.85;;;1.90;;
18732;SDS011;9495;51.210;2.934;2022-07-26T00:11:13;3.65;;;2.03;;
18732;SDS011;9495;51.210;2.934;2022-07-26T00:13:41;3.58;;;2.13;;
18732;SDS011;9495;51.210;2.934;2022-07-26T00:16:10;8.15;;;2.67;;
18732;SDS011;9495;51.210;2.934;2022-07-26T00:18:39;7.43;;;2.50;;
18732;SDS011;9495;51.210;2.934;2022-07-26T00:21:08;11.35;;;2.90;;
18732;SDS011;9495;51.210;2.934;2022-07-26T00:23:37;5.00;;;2.35;;
18732;SDS011;9495;51.210;2.934;2022-07-26T00:26:05;8.57;;;2.58;;
18732;SDS011;9495;51.210;2.934;2022-07-26T00:28:34;5.00;;;2.10;;
18732;SDS011;9495;51.210;2.934;2022-07-26T00:31:02;5.05;;;2.15;;
18732;SDS011;9495;51.210;2.934;2022-07-26T00:33:31;4.43;;;2.30;;
18732;SDS011;9495;51.210;2.934;2022-07-26T00:36:00;5.70;;;2.40;;
18732;SDS011;9495;51.210;2.934;2022-07-26T00:38:29;7.90;;;2.92;;
18732;SDS011;9495;51.210;2.934;2022-07-26T00:40:58;5.53;;;2.40;;
18732;SDS011;9495;51.210;2.934;2022-07-26T00:43:26;4.75;;;2.42;;
18732;SDS011;9495;51.210;2.934;2022-07-26T00:45:55;6.60;;;2.78;;
18732;SDS011;9495;51.210;2.934;2022-07-26T00:48:23;4.57;;;2.70;;
18732;SDS011;9495;51.210;2.934;2022-07-26T00:50:52;3.05;;;2.17;;
18732;SDS011;9495;51.210;2.934;2022-07-26T00:53:21;4.60;;;2.53;;
18732;SDS011;9495;51.210;2.934;2022-07-26T00:55:51;5.63;;;2.65;;
18732;SDS011;9495;51.210;2.934;2022-07-26T00:58:20;5.68;;;2.63;;
18732;SDS011;9495;51.210;2.934;2022-07-26T01:00:48;6.35;;;2.55;;
18732;SDS011;9495;51.210;2.934;2022-07-26T01:03:17;4.70;;;2.78;;
18732;SDS011;9495;51.210;2.934;2022-07-26T01:05:45;4.93;;;2.75;;
18732;SDS011;9495;51.210;2.934;2022-07-26T01:08:16;3.42;;;2.38;;
18732;SDS011;9495;51.210;2.934;2022-07-26T01:10:44;7.00;;;2.65;;
18732;SDS011;9495;51.210;2.934;2022-07-26T01:13:19;7.65;;;2.90;;
18732;SDS011;9495;51.210;2.934;2022-07-26T01:15:48;6.30;;;2.70;;
18732;SDS011;9495;51.210;2.934;2022-07-26T01:18:16;5.65;;;3.38;;
18732;SDS011;9495;51.210;2.934;2022-07-26T01:20:44;6.75;;;2.90;;
18732;SDS011;9495;51.210;2.934;2022-07-26T01:23:15;7.95;;;3.08;;
18732;SDS011;9495;51.210;2.934;2022-07-26T01:25:44;7.60;;;3.00;;
18732;SDS011;9495;51.210;2.934;2022-07-26T01:28:14;6.10;;;2.92;;
18732;SDS011;9495;51.210;2.934;2022-07-26T01:30:45;6.43;;;2.88;;
18732;SDS011;9495;51.210;2.934;2022-07-26T01:33:14;3.75;;;1.95;;
18732;SDS011;9495;51.210;2.934;2022-07-26T01:35:43;7.32;;;2.45;;
18732;SDS011;9495;51.210;2.934;2022-07-26T01:38:12;3.22;;;1.75;;
18732;SDS011;9495;51.210;2.934;2022-07-26T01:40:42;4.80;;;1.70;;
18732;SDS011;9495;51.210;2.934;2022-07-26T01:43:10;3.80;;;1.77;;
18732;SDS011;9495;51.210;2.934;2022-07-26T01:45:39;6.30;;;2.13;;
18732;SDS011;9495;51.210;2.934;2022-07-26T01:48:07;3.53;;;1.33;;
18732;SDS011;9495;51.210;2.934;2022-07-26T01:50:36;8.15;;;1.92;;
18732;SDS011;9495;51.210;2.934;2022-07-26T01:53:04;8.63;;;1.80;;
18732;SDS011;9495;51.210;2.934;2022-07-26T01:55:33;5.38;;;1.83;;
18732;SDS011;9495;51.210;2.934;2022-07-26T01:58:03;4.10;;;2.00;;
18732;SDS011;9495;51.210;2.934;2022-07-26T02:00:32;4.13;;;1.80;;
18732;SDS011;9495;51.210;2.934;2022-07-26T02:03:01;4.85;;;1.77;;
18732;SDS011;9495;51.210;2.934;2022-07-26T02:05:30;3.70;;;1.67;;
18732;SDS011;9495;51.210;2.934;2022-07-26T02:07:58;5.60;;;1.92;;
18732;SDS011;9495;51.210;2.934;2022-07-26T02:10:27;6.60;;;1.90;;
18732;SDS011;9495;51.210;2.934;2022-07-26T02:13:17;6.70;;;1.70;;
18732;SDS011;9495;51.210;2.934;2022-07-26T02:15:45;5.05;;;1.67;;
18732;SDS011;9495;51.210;2.934;2022-07-26T02:18:14;5.45;;;1.73;;
18732;SDS011;9495;51.210;2.934;2022-07-26T02:20:43;8.07;;;2.10;;
18732;SDS011;9495;51.210;2.934;2022-07-26T02:23:11;4.80;;;2.08;;
18732;SDS011;9495;51.210;2.934;2022-07-26T02:25:39;7.60;;;2.25;;
18732;SDS011;9495;51.210;2.934;2022-07-26T02:28:08;6.32;;;2.05;;
18732;SDS011;9495;51.210;2.934;2022-07-26T02:30:38;5.07;;;2.10;;
18732;SDS011;9495;51.210;2.934;2022-07-26T02:33:07;8.23;;;2.35;;
18732;SDS011;9495;51.210;2.934;2022-07-26T02:35:35;6.32;;;2.25;;
18732;SDS011;9495;51.210;2.934;2022-07-26T02:38:04;7.75;;;2.22;;
18732;SDS011;9495;51.210;2.934;2022-07-26T02:40:33;7.38;;;2.15;;
18732;SDS011;9495;51.210;2.934;2022-07-26T02:43:03;4.03;;;2.33;;
18732;SDS011;9495;51.210;2.934;2022-07-26T02:45:33;5.60;;;2.17;;
18732;SDS011;9495;51.210;2.934;2022-07-26T02:48:03;5.93;;;1.88;;
18732;SDS011;9495;51.210;2.934;2022-07-26T02:50:32;11.32;;;2.17;;
18732;SDS011;9495;51.210;2.934;2022-07-26T02:53:01;6.60;;;2.10;;
18732;SDS011;9495;51.210;2.934;2022-07-26T02:55:30;6.80;;;1.95;;
18732;SDS011;9495;51.210;2.934;2022-07-26T02:57:58;4.75;;;1.73;;
18732;SDS011;9495;51.210;2.934;2022-07-26T03:00:27;7.43;;;2.33;;
18732;SDS011;9495;51.210;2.934;2022-07-26T03:02:55;4.30;;;1.77;;
18732;SDS011;9495;51.210;2.934;2022-07-26T03:05:27;5.90;;;1.75;;
18732;SDS011;9495;51.210;2.934;2022-07-26T03:07:56;4.30;;;1.83;;
18732;SDS011;9495;51.210;2.934;2022-07-26T03:10:24;5.75;;;1.63;;
18732;SDS011;9495;51.210;2.934;2022-07-26T03:12:53;3.58;;;1.60;;
18732;SDS011;9495;51.210;2.934;2022-07-26T03:15:21;10.23;;;2.35;;
18732;SDS011;9495;51.210;2.934;2022-07-26T03:17:50;7.35;;;2.17;;
18732;SDS011;9495;51.210;2.934;2022-07-26T03:20:18;5.57;;;1.75;;
18732;SDS011;9495;51.210;2.934;2022-07-26T03:22:48;5.47;;;1.92;;
18732;SDS011;9495;51.210;2.934;2022-07-26T03:25:17;2.80;;;1.65;;
18732;SDS011;9495;51.210;2.934;2022-07-26T03:27:45;5.43;;;2.42;;
18732;SDS011;9495;51.210;2.934;2022-07-26T03:30:14;7.20;;;1.85;;
18732;SDS011;9495;51.210;2.934;2022-07-26T03:32:51;8.02;;;1.80;;
18732;SDS011;9495;51.210;2.934;2022-07-26T03:35:19;5.22;;;1.90;;
18732;SDS011;9495;51.210;2.934;2022-07-26T03:37:49;6.10;;;1.85;;
18732;SDS011;9495;51.210;2.934;2022-07-26T03:40:18;6.40;;;1.88;;
18732;SDS011;9495;51.210;2.934;2022-07-26T03:42:47;4.55;;;1.95;;
18732;SDS011;9495;51.210;2.934;2022-07-26T03:45:15;4.60;;;1.80;;
18732;SDS011;9495;51.210;2.934;2022-07-26T03:47:43;5.13;;;1.92;;
18732;SDS011;9495;51.210;2.934;2022-07-26T03:50:12;6.68;;;2.10;;
18732;SDS011;9495;51.210;2.934;2022-07-26T03:52:40;8.00;;;2.30;;
18732;SDS011;9495;51.210;2.934;2022-07-26T03:55:10;5.93;;;1.63;;
18732;SDS011;9495;51.210;2.934;2022-07-26T03:57:57;6.68;;;1.80;;
18732;SDS011;9495;51.210;2.934;2022-07-26T04:00:25;8.40;;;2.05;;
18732;SDS011;9495;51.210;2.934;2022-07-26T04:02:54;9.75;;;2.25;;
18732;SDS011;9495;51.210;2.934;2022-07-26T04:05:22;8.38;;;2.08;;
18732;SDS011;9495;51.210;2.934;2022-07-26T04:07:51;6.68;;;2.28;;
18732;SDS011;9495;51.210;2.934;2022-07-26T04:10:22;9.23;;;2.10;;
18732;SDS011;9495;51.210;2.934;2022-07-26T04:12:50;9.05;;;2.03;;
18732;SDS011;9495;51.210;2.934;2022-07-26T04:15:19;13.00;;;2.40;;
18732;SDS011;9495;51.210;2.934;2022-07-26T04:17:48;9.15;;;2.22;;
18732;SDS011;9495;51.210;2.934;2022-07-26T04:20:16;7.95;;;2.40;;
18732;SDS011;9495;51.210;2.934;2022-07-26T04:22:45;6.78;;;2.00;;
18732;SDS011;9495;51.210;2.934;2022-07-26T04:25:13;12.93;;;2.42;;
18732;SDS011;9495;51.210;2.934;2022-07-26T04:27:43;7.22;;;1.90;;
18732;SDS011;9495;51.210;2.934;2022-07-26T04:30:12;8.50;;;2.35;;
18732;SDS011;9495;51.210;2.934;2022-07-26T04:32:41;5.30;;;1.80;;
18732;SDS011;9495;51.210;2.934;2022-07-26T04:35:12;5.80;;;1.92;;
18732;SDS011;9495;51.210;2.934;2022-07-26T04:37:42;8.68;;;2.25;;
18732;SDS011;9495;51.210;2.934;2022-07-26T04:40:15;5.20;;;1.90;;
18732;SDS011;9495;51.210;2.934;2022-07-26T04:42:48;11.32;;;2.65;;
18732;SDS011;9495;51.210;2.934;2022-07-26T04:45:17;8.75;;;2.08;;
18732;SDS011;9495;51.210;2.934;2022-07-26T04:47:46;8.10;;;2.35;;
18732;SDS011;9495;51.210;2.934;2022-07-26T04:50:16;5.15;;;2.22;;
18732;SDS011;9495;51.210;2.934;2022-07-26T04:52:45;8.02;;;2.30;;
18732;SDS011;9495;51.210;2.934;2022-07-26T04:55:14;6.50;;;2.50;;
18732;SDS011;9495;51.210;2.934;2022-07-26T04:57:44;11.82;;;2.70;;
18732;SDS011;9495;51.210;2.934;2022-07-26T05:00:16;6.45;;;1.92;;
18732;SDS011;9495;51.210;2.934;2022-07-26T05:02:49;8.85;;;2.17;;
18732;SDS011;9495;51.210;2.934;2022-07-26T05:05:19;8.02;;;2.22;;
18732;SDS011;9495;51.210;2.934;2022-07-26T05:07:49;8.15;;;2.55;;
18732;SDS011;9495;51.210;2.934;2022-07-26T05:10:19;5.90;;;2.03;;
18732;SDS011;9495;51.210;2.934;2022-07-26T05:12:48;5.97;;;2.10;;
18732;SDS011;9495;51.210;2.934;2022-07-26T05:15:19;5.90;;;2.40;;
18732;SDS011;9495;51.210;2.934;2022-07-26T05:17:47;8.00;;;2.10;;
18732;SDS011;9495;51.210;2.934;2022-07-26T05:20:16;6.82;;;2.13;;
18732;SDS011;9495;51.210;2.934;2022-07-26T05:22:44;7.07;;;2.10;;
18732;SDS011;9495;51.210;2.934;2022-07-26T05:25:12;8.40;;;2.60;;
18732;SDS011;9495;51.210;2.934;2022-07-26T05:27:41;9.18;;;2.80;;
18732;SDS011;9495;51.210;2.934;2022-07-26T05:30:09;5.47;;;2.58;;
18732;SDS011;9495;51.210;2.934;2022-07-26T05:32:39;7.35;;;2.10;;
18732;SDS011;9495;51.210;2.934;2022-07-26T05:35:08;8.48;;;2.50;;
18732;SDS011;9495;51.210;2.934;2022-07-26T05:37:37;4.78;;;1.95;;
18732;SDS011;9495;51.210;2.934;2022-07-26T05:40:05;8.52;;;2.08;;
18732;SDS011;9495;51.210;2.934;2022-07-26T05:42:34;5.97;;;2.20;;
18732;SDS011;9495;51.210;2.934;2022-07-26T05:45:03;5.82;;;2.60;;
18732;SDS011;9495;51.210;2.934;2022-07-26T05:47:31;10.75;;;2.28;;
18732;SDS011;9495;51.210;2.934;2022-07-26T05:50:02;6.00;;;2.03;;
18732;SDS011;9495;51.210;2.934;2022-07-26T05:52:31;8.20;;;2.35;;
18732;SDS011;9495;51.210;2.934;2022-07-26T05:54:59;6.18;;;2.10;;
18732;SDS011;9495;51.210;2.934;2022-07-26T05:57:28;7.28;;;2.17;;
18732;SDS011;9495;51.210;2.934;2022-07-26T05:59:56;6.78;;;2.80;;
18732;SDS011;9495;51.210;2.934;2022-07-26T06:02:24;8.70;;;2.05;;
18732;SDS011;9495;51.210;2.934;2022-07-26T06:04:53;6.38;;;2.45;;
18732;SDS011;9495;51.210;2.934;2022-07-26T06:07:23;9.55;;;2.30;;
18732;SDS011;9495;51.210;2.934;2022-07-26T06:09:51;7.97;;;2.42;;
18732;SDS011;9495;51.210;2.934;2022-07-26T06:12:19;5.80;;;2.00;;
18732;SDS011;9495;51.210;2.934;2022-07-26T06:14:48;7.07;;;2.05;;
18732;SDS011;9495;51.210;2.934;2022-07-26T06:17:17;6.32;;;2.30;;
18732;SDS011;9495;51.210;2.934;2022-07-26T06:19:45;5.70;;;2.35;;
18732;SDS011;9495;51.210;2.934;2022-07-26T06:22:14;3.85;;;1.85;;
18732;SDS011;9495;51.210;2.934;2022-07-26T06:24:44;6.15;;;2.28;;
18732;SDS011;9495;51.210;2.934;2022-07-26T06:27:12;5.10;;;2.40;;
18732;SDS011;9495;51.210;2.934;2022-07-26T06:29:40;6.07;;;2.00;;
18732;SDS011;9495;51.210;2.934;2022-07-26T06:32:09;3.25;;;1.60;;
18732;SDS011;9495;51.210;2.934;2022-07-26T06:34:37;12.23;;;2.53;;
18732;SDS011;9495;51.210;2.934;2022-07-26T06:37:06;4.82;;;1.90;;
18732;SDS011;9495;51.210;2.934;2022-07-26T06:39:34;6.25;;;2.00;;
18732;SDS011;9495;51.210;2.934;2022-07-26T06:42:04;4.05;;;2.00;;
18732;SDS011;9495;51.210;2.934;2022-07-26T06:44:32;5.65;;;1.67;;
18732;SDS011;9495;51.210;2.934;2022-07-26T06:47:01;5.78;;;2.13;;
18732;SDS011;9495;51.210;2.934;2022-07-26T06:49:30;5.85;;;1.95;;
18732;SDS011;9495;51.210;2.934;2022-07-26T06:51:58;4.75;;;1.95;;
18732;SDS011;9495;51.210;2.934;2022-07-26T06:54:27;4.88;;;2.33;;
18732;SDS011;9495;51.210;2.934;2022-07-26T06:56:55;5.20;;;2.05;;
18732;SDS011;9495;51.210;2.934;2022-07-26T06:59:25;4.63;;;1.80;;
18732;SDS011;9495;51.210;2.934;2022-07-26T07:01:53;4.90;;;1.88;;
18732;SDS011;9495;51.210;2.934;2022-07-26T07:04:26;4.80;;;2.00;;
18732;SDS011;9495;51.210;2.934;2022-07-26T07:06:54;4.53;;;2.10;;
18732;SDS011;9495;51.210;2.934;2022-07-26T07:09:31;5.82;;;1.85;;
18732;SDS011;9495;51.210;2.934;2022-07-26T07:12:00;4.18;;;1.80;;
18732;SDS011;9495;51.210;2.934;2022-07-26T07:14:37;2.60;;;1.73;;
18732;SDS011;9495;51.210;2.934;2022-07-26T07:17:06;4.78;;;1.92;;
18732;SDS011;9495;51.210;2.934;2022-07-26T07:19:40;5.22;;;1.98;;
18732;SDS011;9495;51.210;2.934;2022-07-26T07:22:08;6.40;;;1.75;;
18732;SDS011;9495;51.210;2.934;2022-07-26T07:24:38;3.72;;;1.30;;
18732;SDS011;9495;51.210;2.934;2022-07-26T07:27:07;5.47;;;0.73;;
18732;SDS011;9495;51.210;2.934;2022-07-26T07:29:37;0.75;;;0.50;;
18732;SDS011;9495;51.210;2.934;2022-07-26T07:32:08;2.67;;;0.82;;
18732;SDS011;9495;51.210;2.934;2022-07-26T07:34:45;1.75;;;0.50;;
18732;SDS011;9495;51.210;2.934;2022-07-26T07:37:13;3.83;;;0.90;;
18732;SDS011;9495;51.210;2.934;2022-07-26T07:39:42;3.78;;;0.63;;
18732;SDS011;9495;51.210;2.934;2022-07-26T07:42:16;3.00;;;0.80;;
18732;SDS011;9495;51.210;2.934;2022-07-26T07:44:46;5.68;;;0.88;;
18732;SDS011;9495;51.210;2.934;2022-07-26T07:47:15;4.00;;;1.17;;
18732;SDS011;9495;51.210;2.934;2022-07-26T07:49:44;3.65;;;0.77;;
18732;SDS011;9495;51.210;2.934;2022-07-26T07:52:12;1.92;;;0.57;;
18732;SDS011;9495;51.210;2.934;2022-07-26T07:54:41;1.10;;;0.30;;
18732;SDS011;9495;51.210;2.934;2022-07-26T07:57:09;1.33;;;0.55;;
18732;SDS011;9495;51.210;2.934;2022-07-26T07:59:39;4.15;;;0.93;;
18732;SDS011;9495;51.210;2.934;2022-07-26T08:02:09;2.97;;;0.70;;
18732;SDS011;9495;51.210;2.934;2022-07-26T08:04:40;4.05;;;0.77;;
18732;SDS011;9495;51.210;2.934;2022-07-26T08:07:08;1.33;;;0.60;;
18732;SDS011;9495;51.210;2.934;2022-07-26T08:09:37;2.13;;;0.70;;
18732;SDS011;9495;51.210;2.934;2022-07-26T08:12:08;4.13;;;0.73;;
18732;SDS011;9495;51.210;2.934;2022-07-26T08:14:37;2.78;;;0.88;;
18732;SDS011;9495;51.210;2.934;2022-07-26T08:17:06;2.92;;;0.70;;
18732;SDS011;9495;51.210;2.934;2022-07-26T08:19:36;4.13;;;0.90;;
18732;SDS011;9495;51.210;2.934;2022-07-26T08:22:07;1.27;;;0.60;;
18732;SDS011;9495;51.210;2.934;2022-07-26T08:24:36;2.08;;;0.95;;
18732;SDS011;9495;51.210;2.934;2022-07-26T08:27:04;3.55;;;0.60;;
18732;SDS011;9495;51.210;2.934;2022-07-26T08:29:33;2.72;;;0.50;;
18732;SDS011;9495;51.210;2.934;2022-07-26T08:32:01;2.72;;;1.05;;
18732;SDS011;9495;51.210;2.934;2022-07-26T08:34:32;5.60;;;0.70;;
18732;SDS011;9495;51.210;2.934;2022-07-26T08:37:01;1.45;;;0.60;;
18732;SDS011;9495;51.210;2.934;2022-07-26T08:39:45;3.03;;;1.00;;
18732;SDS011;9495;51.210;2.934;2022-07-26T08:42:14;2.50;;;0.85;;
18732;SDS011;9495;51.210;2.934;2022-07-26T08:44:48;4.13;;;0.88;;
18732;SDS011;9495;51.210;2.934;2022-07-26T08:47:18;5.32;;;0.93;;
18732;SDS011;9495;51.210;2.934;2022-07-26T08:50:07;4.47;;;1.13;;
18732;SDS011;9495;51.210;2.934;2022-07-26T08:52:37;7.57;;;1.25;;
18732;SDS011;9495;51.210;2.934;2022-07-26T08:55:06;4.68;;;0.95;;
18732;SDS011;9495;51.210;2.934;2022-07-26T08:57:35;6.68;;;1.42;;
18732;SDS011;9495;51.210;2.934;2022-07-26T09:00:14;4.78;;;1.55;;
18732;SDS011;9495;51.210;2.934;2022-07-26T09:02:43;9.55;;;1.38;;
18732;SDS011;9495;51.210;2.934;2022-07-26T09:05:14;6.32;;;1.40;;
18732;SDS011;9495;51.210;2.934;2022-07-26T09:07:44;2.67;;;1.10;;
18732;SDS011;9495;51.210;2.934;2022-07-26T09:10:13;3.38;;;1.02;;
18732;SDS011;9495;51.210;2.934;2022-07-26T09:12:42;7.15;;;1.40;;
18732;SDS011;9495;51.210;2.934;2022-07-26T09:15:18;3.05;;;0.80;;
18732;SDS011;9495;51.210;2.934;2022-07-26T09:17:48;3.38;;;0.80;;
18732;SDS011;9495;51.210;2.934;2022-07-26T09:20:21;5.38;;;1.10;;
18732;SDS011;9495;51.210;2.934;2022-07-26T09:23:02;3.92;;;1.05;;
18732;SDS011;9495;51.210;2.934;2022-07-26T09:25:32;4.43;;;1.00;;
18732;SDS011;9495;51.210;2.934;2022-07-26T09:28:01;6.70;;;1.25;;
18732;SDS011;9495;51.210;2.934;2022-07-26T09:30:50;7.93;;;1.40;;
18732;SDS011;9495;51.210;2.934;2022-07-26T09:33:19;5.78;;;1.17;;
18732;SDS011;9495;51.210;2.934;2022-07-26T09:36:00;5.25;;;1.30;;
18732;SDS011;9495;51.210;2.934;2022-07-26T09:38:37;4.38;;;1.13;;
18732;SDS011;9495;51.210;2.934;2022-07-26T09:41:15;6.70;;;1.35;;
18732;SDS011;9495;51.210;2.934;2022-07-26T09:43:46;2.25;;;0.85;;
18732;SDS011;9495;51.210;2.934;2022-07-26T09:46:19;5.38;;;1.50;;
18732;SDS011;9495;51.210;2.934;2022-07-26T09:48:48;7.45;;;1.40;;
18732;SDS011;9495;51.210;2.934;2022-07-26T09:51:38;5.35;;;1.23;;
18732;SDS011;9495;51.210;2.934;2022-07-26T09:54:08;7.43;;;1.58;;
18732;SDS011;9495;51.210;2.934;2022-07-26T09:56:41;7.70;;;1.73;;
18732;SDS011;9495;51.210;2.934;2022-07-26T09:59:14;7.03;;;1.67;;
18732;SDS011;9495;51.210;2.934;2022-07-26T10:01:44;7.78;;;1.83;;
18732;SDS011;9495;51.210;2.934;2022-07-26T10:04:14;5.95;;;1.38;;
18732;SDS011;9495;51.210;2.934;2022-07-26T10:06:44;6.82;;;1.15;;
18732;SDS011;9495;51.210;2.934;2022-07-26T10:09:13;9.45;;;1.67;;
18732;SDS011;9495;51.210;2.934;2022-07-26T10:11:43;5.75;;;1.17;;
18732;SDS011;9495;51.210;2.934;2022-07-26T10:14:35;6.53;;;2.00;;
18732;SDS011;9495;51.210;2.934;2022-07-26T10:23:37;10.48;;;2.30;;
18732;SDS011;9495;51.210;2.934;2022-07-26T10:26:08;6.70;;;1.83;;
18732;SDS011;9495;51.210;2.934;2022-07-26T10:28:38;7.35;;;2.00;;
18732;SDS011;9495;51.210;2.934;2022-07-26T10:31:26;9.38;;;1.70;;
18732;SDS011;9495;51.210;2.934;2022-07-26T10:33:57;8.45;;;1.80;;
18732;SDS011;9495;51.210;2.934;2022-07-26T10:36:28;7.57;;;1.65;;
18732;SDS011;9495;51.210;2.934;2022-07-26T10:39:07;12.75;;;1.95;;
18732;SDS011;9495;51.210;2.934;2022-07-26T10:41:39;9.57;;;2.35;;
18732;SDS011;9495;51.210;2.934;2022-07-26T10:44:15;10.80;;;2.28;;
18732;SDS011;9495;51.210;2.934;2022-07-26T10:46:56;9.95;;;2.65;;
18732;SDS011;9495;51.210;2.934;2022-07-26T10:49:30;8.93;;;2.13;;
18732;SDS011;9495;51.210;2.934;2022-07-26T10:52:04;9.02;;;2.80;;
18732;SDS011;9495;51.210;2.934;2022-07-26T10:57:38;10.43;;;2.47;;
18732;SDS011;9495;51.210;2.934;2022-07-26T11:00:11;10.55;;;1.65;;
18732;SDS011;9495;51.210;2.934;2022-07-26T11:02:42;4.57;;;1.73;;
18732;SDS011;9495;51.210;2.934;2022-07-26T11:05:14;9.07;;;1.90;;
18732;SDS011;9495;51.210;2.934;2022-07-26T11:07:51;9.32;;;1.98;;
18732;SDS011;9495;51.210;2.934;2022-07-26T11:10:23;8.65;;;2.65;;
18732;SDS011;9495;51.210;2.934;2022-07-26T11:15:45;10.45;;;1.88;;
18732;SDS011;9495;51.210;2.934;2022-07-26T11:18:18;9.70;;;1.80;;
18732;SDS011;9495;51.210;2.934;2022-07-26T11:20:52;9.88;;;2.25;;
18732;SDS011;9495;51.210;2.934;2022-07-26T11:23:22;11.35;;;1.73;;
18732;SDS011;9495;51.210;2.934;2022-07-26T11:28:50;12.23;;;2.00;;
18732;SDS011;9495;51.210;2.934;2022-07-26T11:31:21;12.70;;;1.98;;
18732;SDS011;9495;51.210;2.934;2022-07-26T11:34:17;8.55;;;2.00;;
18732;SDS011;9495;51.210;2.934;2022-07-26T11:36:47;9.25;;;1.92;;
18732;SDS011;9495;51.210;2.934;2022-07-26T11:39:19;9.63;;;2.03;;
18732;SDS011;9495;51.210;2.934;2022-07-26T11:41:50;15.35;;;2.40;;
18732;SDS011;9495;51.210;2.934;2022-07-26T11:44:22;12.00;;;2.70;;
18732;SDS011;9495;51.210;2.934;2022-07-26T11:46:51;9.55;;;1.98;;
18732;SDS011;9495;51.210;2.934;2022-07-26T11:49:20;8.95;;;2.45;;
18732;SDS011;9495;51.210;2.934;2022-07-26T11:52:09;11.27;;;2.03;;
18732;SDS011;9495;51.210;2.934;2022-07-26T11:54:45;13.07;;;2.40;;
18732;SDS011;9495;51.210;2.934;2022-07-26T11:57:16;9.50;;;2.05;;
18732;SDS011;9495;51.210;2.934;2022-07-26T11:59:46;7.93;;;2.30;;
18732;SDS011;9495;51.210;2.934;2022-07-26T12:02:16;6.95;;;1.77;;
18732;SDS011;9495;51.210;2.934;2022-07-26T12:04:46;6.75;;;1.90;;
18732;SDS011;9495;51.210;2.934;2022-07-26T12:07:15;9.45;;;1.80;;
18732;SDS011;9495;51.210;2.934;2022-07-26T12:09:45;11.50;;;2.00;;
18732;SDS011;9495;51.210;2.934;2022-07-26T12:12:19;6.75;;;1.83;;
18732;SDS011;9495;51.210;2.934;2022-07-26T12:14:56;7.47;;;1.90;;
18732;SDS011;9495;51.210;2.934;2022-07-26T12:17:25;9.13;;;2.35;;
18732;SDS011;9495;51.210;2.934;2022-07-26T12:20:10;9.50;;;1.70;;
18732;SDS011;9495;51.210;2.934;2022-07-26T12:22:39;6.82;;;2.10;;
18732;SDS011;9495;51.210;2.934;2022-07-26T12:25:23;10.90;;;1.90;;
18732;SDS011;9495;51.210;2.934;2022-07-26T12:27:52;6.65;;;1.67;;
18732;SDS011;9495;51.210;2.934;2022-07-26T12:30:21;7.20;;;1.63;;
18732;SDS011;9495;51.210;2.934;2022-07-26T12:32:59;7.00;;;1.92;;
18732;SDS011;9495;51.210;2.934;2022-07-26T12:35:28;10.90;;;1.90;;
18732;SDS011;9495;51.210;2.934;2022-07-26T12:38:00;8.73;;;1.67;;
18732;SDS011;9495;51.210;2.934;2022-07-26T12:40:30;9.98;;;2.08;;
18732;SDS011;9495;51.210;2.934;2022-07-26T12:43:07;6.35;;;1.65;;
18732;SDS011;9495;51.210;2.934;2022-07-26T12:45:36;10.45;;;2.10;;
18732;SDS011;9495;51.210;2.934;2022-07-26T12:48:06;9.50;;;1.60;;
18732;SDS011;9495;51.210;2.934;2022-07-26T12:50:36;10.23;;;2.20;;
18732;SDS011;9495;51.210;2.934;2022-07-26T12:53:05;6.38;;;1.85;;
18732;SDS011;9495;51.210;2.934;2022-07-26T12:55:38;13.32;;;2.00;;
18732;SDS011;9495;51.210;2.934;2022-07-26T12:58:08;8.38;;;1.63;;
18732;SDS011;9495;51.210;2.934;2022-07-26T13:00:36;5.30;;;1.52;;
18732;SDS011;9495;51.210;2.934;2022-07-26T13:03:04;10.18;;;1.80;;
18732;SDS011;9495;51.210;2.934;2022-07-26T13:05:33;5.85;;;1.85;;
18732;SDS011;9495;51.210;2.934;2022-07-26T13:08:01;9.82;;;2.17;;
18732;SDS011;9495;51.210;2.934;2022-07-26T13:10:30;6.13;;;1.60;;
18732;SDS011;9495;51.210;2.934;2022-07-26T13:13:00;7.05;;;1.60;;
18732;SDS011;9495;51.210;2.934;2022-07-26T13:15:31;8.15;;;2.00;;
18732;SDS011;9495;51.210;2.934;2022-07-26T13:18:03;8.82;;;1.85;;
18732;SDS011;9495;51.210;2.934;2022-07-26T13:20:33;6.85;;;1.45;;
18732;SDS011;9495;51.210;2.934;2022-07-26T13:23:03;6.50;;;1.73;;
18732;SDS011;9495;51.210;2.934;2022-07-26T13:25:31;9.48;;;2.10;;
18732;SDS011;9495;51.210;2.934;2022-07-26T13:28:05;7.93;;;1.98;;
18732;SDS011;9495;51.210;2.934;2022-07-26T13:30:36;7.57;;;1.58;;
18732;SDS011;9495;51.210;2.934;2022-07-26T13:33:08;10.82;;;2.28;;
18732;SDS011;9495;51.210;2.934;2022-07-26T13:35:37;12.55;;;2.10;;
18732;SDS011;9495;51.210;2.934;2022-07-26T13:38:08;9.82;;;2.03;;
18732;SDS011;9495;51.210;2.934;2022-07-26T13:40:36;10.05;;;2.13;;
18732;SDS011;9495;51.210;2.934;2022-07-26T13:43:04;11.05;;;1.90;;
18732;SDS011;9495;51.210;2.934;2022-07-26T13:45:33;7.75;;;1.50;;
18732;SDS011;9495;51.210;2.934;2022-07-26T13:48:03;10.57;;;2.00;;
18732;SDS011;9495;51.210;2.934;2022-07-26T13:50:32;6.07;;;2.13;;
18732;SDS011;9495;51.210;2.934;2022-07-26T13:53:00;7.75;;;1.67;;
18732;SDS011;9495;51.210;2.934;2022-07-26T13:55:29;7.70;;;1.90;;
18732;SDS011;9495;51.210;2.934;2022-07-26T13:57:58;6.25;;;1.85;;
18732;SDS011;9495;51.210;2.934;2022-07-26T14:00:33;7.40;;;1.67;;
18732;SDS011;9495;51.210;2.934;2022-07-26T14:03:03;8.55;;;1.70;;
18732;SDS011;9495;51.210;2.934;2022-07-26T14:05:31;8.57;;;2.42;;
18732;SDS011;9495;51.210;2.934;2022-07-26T14:08:01;10.30;;;1.98;;
18732;SDS011;9495;51.210;2.934;2022-07-26T14:10:29;8.20;;;1.83;;
18732;SDS011;9495;51.210;2.934;2022-07-26T14:12:58;9.50;;;1.75;;
18732;SDS011;9495;51.210;2.934;2022-07-26T14:15:26;6.18;;;1.60;;
18732;SDS011;9495;51.210;2.934;2022-07-26T14:17:55;7.63;;;2.00;;
18732;SDS011;9495;51.210;2.934;2022-07-26T14:20:26;13.13;;;1.70;;
18732;SDS011;9495;51.210;2.934;2022-07-26T14:22:55;9.75;;;1.88;;
18732;SDS011;9495;51.210;2.934;2022-07-26T14:25:24;6.25;;;2.03;;
18732;SDS011;9495;51.210;2.934;2022-07-26T14:27:53;6.40;;;1.70;;
18732;SDS011;9495;51.210;2.934;2022-07-26T14:30:22;8.15;;;1.90;;
18732;SDS011;9495;51.210;2.934;2022-07-26T14:32:50;9.00;;;1.80;;
18732;SDS011;9495;51.210;2.934;2022-07-26T14:35:19;11.05;;;1.90;;
18732;SDS011;9495;51.210;2.934;2022-07-26T14:37:48;8.48;;;1.77;;
18732;SDS011;9495;51.210;2.934;2022-07-26T14:40:17;7.78;;;1.85;;
18732;SDS011;9495;51.210;2.934;2022-07-26T14:42:45;8.23;;;1.73;;
18732;SDS011;9495;51.210;2.934;2022-07-26T14:45:14;7.22;;;1.88;;
18732;SDS011;9495;51.210;2.934;2022-07-26T14:47:42;7.50;;;1.50;;
18732;SDS011;9495;51.210;2.934;2022-07-26T14:50:11;4.70;;;1.27;;
18732;SDS011;9495;51.210;2.934;2022-07-26T14:52:42;4.38;;;1.38;;
18732;SDS011;9495;51.210;2.934;2022-07-26T14:55:14;7.57;;;1.77;;
18732;SDS011;9495;51.210;2.934;2022-07-26T14:57:50;7.03;;;1.55;;
18732;SDS011;9495;51.210;2.934;2022-07-26T15:00:19;5.93;;;1.33;;
18732;SDS011;9495;51.210;2.934;2022-07-26T15:02:47;7.97;;;1.55;;
18732;SDS011;9495;51.210;2.934;2022-07-26T15:05:16;9.00;;;1.65;;
18732;SDS011;9495;51.210;2.934;2022-07-26T15:07:44;5.30;;;1.35;;
18732;SDS011;9495;51.210;2.934;2022-07-26T15:10:14;8.90;;;1.70;;
18732;SDS011;9495;51.210;2.934;2022-07-26T15:12:43;7.32;;;1.90;;
18732;SDS011;9495;51.210;2.934;2022-07-26T15:15:11;5.72;;;1.50;;
18732;SDS011;9495;51.210;2.934;2022-07-26T15:17:40;5.55;;;1.50;;
18732;SDS011;9495;51.210;2.934;2022-07-26T15:20:08;6.07;;;1.65;;
18732;SDS011;9495;51.210;2.934;2022-07-26T15:22:37;4.50;;;1.35;;
18732;SDS011;9495;51.210;2.934;2022-07-26T15:25:06;5.78;;;1.20;;
18732;SDS011;9495;51.210;2.934;2022-07-26T15:27:36;7.65;;;1.48;;
18732;SDS011;9495;51.210;2.934;2022-07-26T15:30:05;7.32;;;1.40;;
18732;SDS011;9495;51.210;2.934;2022-07-26T15:32:40;7.72;;;1.73;;
18732;SDS011;9495;51.210;2.934;2022-07-26T15:35:10;5.35;;;1.60;;